Nearby METAR Reports

 

KMTN - Baltimore/Martin, Maryland, USA
Distance from station: SSE 8mi, 13km
Updated: Fri, 25-Jul-2014 11:03pm EDT
Clear
Clear
 Wind from calm
Wind: Calm
Temperature: 68°F , 20°C
Dew Point: 63°F , 17°C
Humidity: 83%
Barometer: 30.02 inHg , 1016.6 hPa
Clouds: Clear
Visibility: 10 miles , 16 km
2014/07/26 03:03 KMTN 260303Z AUTO 00000KT 10SM CLR 20/17 A3002 RMK AO2
KDMH - Baltimore/Dwntwn, Maryland, USA
Distance from station: SW 12mi, 19km
Updated: Fri, 25-Jul-2014 10:54pm EDT

 
Temperature: 75°F , 24°C
Dew Point: 57°F , 14°C
Humidity: 54%
Barometer: 30.01 inHg , 1016.3 hPa
2014/07/26 02:54 KDMH 260254Z AUTO 24/14 A3001 RMK AO1 SLP162 T02390139 58002
 
KBWI - Balto/Wash Intl, Maryland, USA
Distance from station: SSW 20mi, 33km
Updated: Fri, 25-Jul-2014 10:54pm EDT
Partly cloudy
Partly cloudy
 Wind from calm
Wind: Calm
Temperature: 68°F , 20°C
Dew Point: 57°F , 14°C
Humidity: 69%
Barometer: 30.01 inHg , 1016.3 hPa
Clouds: Partly cloudy
Visibility: 10 miles , 16 km
Cloud details: Partly cloudy 25000 ft
2014/07/26 02:54 KBWI 260254Z 00000KT 10SM SCT250 20/14 A3001 RMK AO2 SLP159 T02000139 58002
KDMW - Carroll Cnty, Maryland, USA
Distance from station: WNW 30mi, 48km
Updated: Fri, 25-Jul-2014 10:40pm EDT
Clear
Clear
 Wind from calm
Wind: Calm
Temperature: 70°F , 21°C
Dew Point: 63°F , 17°C
Humidity: 78%
Barometer: 30.03 inHg , 1016.9 hPa
Clouds: Clear
Visibility: 10 miles , 16 km
2014/07/26 02:40 KDMW 260240Z AUTO 00000KT 10SM CLR 21/17 A3003 RMK AO2
 
KNAK - Annapolis/Naval, Maryland, USA
Distance from station: S 30mi, 48km
Updated: Fri, 25-Jul-2014 10:54pm EDT
Clear
Clear
 Wind from S
Wind: S 5 mph , 7 km/h
Temperature: 73°F , 23°C
Dew Point: 59°F , 15°C
Humidity: 61%
Barometer: 30.01 inHg , 1016.3 hPa
Clouds: Clear
Visibility: 10 miles , 16 km
2014/07/26 02:54 KNAK 260254Z AUTO 18004KT 10SM CLR 23/15 A3001 RMK AO2 SLP163 T02280150 58004
KW29 - Stevensville, Maryland, USA
Distance from station: SSE 31mi, 50km
Updated: Fri, 25-Jul-2014 11:02pm EDT

 Wind from SE
Wind: SE 6 mph , 9 km/h
Temperature: 73°F , 23°C
Dew Point: 55°F , 13°C
Humidity: 53%
Barometer: 30.01 inHg , 1016.3 hPa
Visibility: 10 miles , 16 km
2014/07/26 03:02 KW29 260302Z AUTO 14005KT 10SM 23/13 A3001 RMK AO1
 
KCGS - College Park, Maryland, USA
Distance from station: SW 38mi, 61km
Updated: Fri, 25-Jul-2014 10:40pm EDT
Clear
Clear
 Wind from calm
Wind: Calm
Temperature: 70°F , 21°C
Dew Point: 59°F , 15°C
Humidity: 69%
Barometer: 30.01 inHg , 1016.3 hPa
Clouds: Clear
Visibility: 10 miles , 16 km
2014/07/26 02:40 KCGS 260240Z AUTO 00000KT 10SM CLR 21/15 A3001 RMK AO1
KGAI - Gaithersburg, Maryland, USA
Distance from station: WSW 40mi, 65km
Updated: Fri, 25-Jul-2014 10:55pm EDT
Clear
Clear
 Wind from SE
Wind: SE 5 mph , 7 km/h
Temperature: 66°F , 19°C
Dew Point: 55°F , 13°C
Humidity: 68%
Barometer: 30.05 inHg , 1017.6 hPa
Clouds: Clear
Visibility: 10 miles , 16 km
2014/07/26 02:55 KGAI 260255Z AUTO 13004KT 10SM CLR 19/13 A3005 RMK AO1 57003
 
KTHV - York, Pennsylvania, USA
Distance from station: NNW 40mi, 65km
Updated: Fri, 25-Jul-2014 10:53pm EDT
Clear
Clear
 Wind from calm
Wind: Calm
Temperature: 63°F , 17°C
Dew Point: 55°F , 13°C
Humidity: 77%
Barometer: 30.01 inHg , 1016.3 hPa
Clouds: Clear
Visibility: 10 miles , 16 km
2014/07/26 02:53 KTHV 260253Z AUTO 00000KT 10SM CLR 17/13 A3001 RMK AO2 SLP161 T01720133 58002
KFDK - Frederick, Maryland, USA
Distance from station: W 47mi, 75km
Updated: Fri, 25-Jul-2014 10:40pm EDT
Clear
Clear
 Wind from calm
Wind: Calm
Temperature: 66°F , 19°C
Dew Point: 63°F , 17°C
Humidity: 88%
Barometer: 30.03 inHg , 1016.9 hPa
Clouds: Clear
Visibility: 10 miles , 16 km
2014/07/26 02:40 KFDK 260240Z AUTO 00000KT 10SM CLR 19/17 A3003 RMK AO2
 
KESN - Easton/Newnam, Maryland, USA
Distance from station: SSE 48mi, 78km
Updated: Fri, 25-Jul-2014 11:14pm EDT
Clear
Clear
 Wind from SSE
Wind: SSE 3 mph , 6 km/h
Temperature: 70°F , 21°C
Dew Point: 61°F , 16°C
Humidity: 73%
Barometer: 30.05 inHg , 1017.6 hPa
Clouds: Clear
Visibility: 10 miles , 16 km
2014/07/26 03:14 KESN 260314Z AUTO 16003KT 10SM CLR 21/16 A3005 RMK AO2 T02050159
KDCA - Washington/Natl, Washington D.c., USA
Distance from station: SW 49mi, 79km
Updated: Fri, 25-Jul-2014 10:52pm EDT
Partly cloudy
Partly cloudy
 Wind from SSE
Wind: SSE 7 mph , 11 km/h
Temperature: 73°F , 23°C
Dew Point: 61°F , 16°C
Humidity: 65%
Barometer: 30.01 inHg , 1016.3 hPa
Clouds: Partly cloudy
Visibility: 10 miles , 16 km
Cloud details: Partly cloudy 25000 ft
2014/07/26 02:52 KDCA 260252Z 16006KT 10SM SCT250 23/16 A3001 RMK AO2 SLP161 T02330161 58003
 
KLNS - Lancaster, Pennsylvania, USA
Distance from station: N 49mi, 79km
Updated: Fri, 25-Jul-2014 10:53pm EDT
Clear
Clear
 Wind from E
Wind: E 5 mph , 7 km/h
Temperature: 63°F , 17°C
Dew Point: 55°F , 13°C
Humidity: 77%
Barometer: 30.00 inHg , 1015.9 hPa
Clouds: Clear
Visibility: 10 miles , 16 km
2014/07/26 02:53 KLNS 260253Z AUTO 09004KT 10SM CLR 17/13 A3000 RMK AO2 SLP158 T01720133 58002
KILG - Wilmington, Delaware, USA
Distance from station: ENE 50mi, 81km
Updated: Fri, 25-Jul-2014 10:51pm EDT
Clear
Clear
 Wind from SSW
Wind: SSW 3 mph , 6 km/h
Temperature: 72°F , 22°C
Dew Point: 54°F , 12°C
Humidity: 53%
Barometer: 30.01 inHg , 1016.3 hPa
Clouds: Clear
Visibility: 10 miles , 16 km
2014/07/26 02:51 KILG 260251Z AUTO 21003KT 10SM CLR 22/12 A3001 RMK AO2 SLP163 T02170117 58000